Other Surface Observations
Issued by NWS Great Falls, MT

Home | Current Version | Previous Version | Text Only | Print | Product List | Glossary On
Versions: 1 2 3 4 5 6 7 8 9 10 11 12 13 14 15 16 17 18 19 20 21 22 23 24 25 26 27 28 29 30 31 32 33 34 35 36 37 38 39 40 41 42 43 44 45 46 47 48 49 50
750
SXUS55 KTFX 100902
OSOTFX

AREA AWOS OBSERVATIONS
NATIONAL WEATHER SERVICE GREAT FALLS MT
0105 AM MST Wed Feb 10 2016

METAR K6S8 100755Z AUTO 21014KT 40SM 06/M07 A3003 RMK A01 T00551066
METAR K6S8 100655Z AUTO 21000KT 40SM 06/M07 A3006 RMK A01 T00551066
METAR K7S1 100755Z AUTO 10007KT 40SM M02/M08 A3022 RMK A01 T10161077
METAR K9S5 100755Z AUTO 15000KT 7SM M06/M06 A3019 RMK A01 T10551055
METAR KRPX 100755Z AUTO 22011KT 40SM 09/M08 A2992 RMK A01 T00881077
METAR KTHM 100655Z AUTO 04000KT 0 1/4SM M03/M04 A3028 RMK A01 T10331044



USA.gov is the U.S. government's official web portal to all federal, state and local government web resources and services.